Time;durP1;ratioP1;P1;durP2;ratioP2;P2;SDS_P1;SDS_P2;PMS_P1;PMS_P2;Temp;Humidity;BMP_temperature;BMP_pressure;BME280_temperature;BME280_humidity;BME280_pressure;Samples;Min_cycle;Max_cycle;Signal;HPM_P1;HPM_P2
2022/11/24 00:01:26;;;;;;;2.13;1.02;;;12.10;79.90;;;;;;4996265;28;20116;-82
2022/11/24 00:04:02;;;;;;;1.92;1.10;;;12.10;79.80;;;;;;4995752;28;20064;-82
2022/11/24 00:06:30;;;;;;;1.90;1.00;;;12.10;79.80;;;;;;4980107;28;20026;-83
2022/11/24 00:08:56;;;;;;;1.80;1.30;;;12.10;79.80;;;;;;4995664;28;20058;-82
2022/11/24 00:11:30;;;;;;;1.85;1.17;;;12.20;79.80;;;;;;4996316;28;20018;-82
2022/11/24 00:13:57;;;;;;;1.65;1.13;;;12.10;79.70;;;;;;4995976;28;20026;-83
2022/11/24 00:16:28;;;;;;;2.05;1.00;;;12.10;79.60;;;;;;4996485;28;20079;-82
2022/11/24 00:18:55;;;;;;;2.40;1.10;;;12.20;79.50;;;;;;4996026;28;20050;-82
2022/11/24 00:21:22;;;;;;;1.85;1.10;;;12.20;79.40;;;;;;4994754;28;20025;-82
2022/11/24 00:23:58;;;;;;;1.98;1.10;;;12.20;79.30;;;;;;4996599;28;20022;-82
2022/11/24 00:26:27;;;;;;;1.83;1.10;;;12.20;79.30;;;;;;4978292;28;20172;-82
2022/11/24 00:28:54;;;;;;;1.63;1.20;;;12.20;79.20;;;;;;4977387;28;20106;-82
2022/11/24 00:31:54;;;;;;;2.17;1.15;;;12.20;79.20;;;;;;5004147;28;20037;-83
2022/11/24 00:40:36;;;;;;;2.85;1.40;;;12.20;79.70;;;;;;5016473;28;20536;-82
2022/11/24 00:43:28;;;;;;;2.92;1.38;;;12.10;79.60;;;;;;4996555;28;20641;-83
2022/11/24 00:45:54;;;;;;;2.13;1.15;;;12.10;79.70;;;;;;5014663;28;20048;-82
2022/11/24 00:48:20;;;;;;;2.03;1.13;;;12.10;79.80;;;;;;4979595;28;20478;-82
2022/11/24 00:51:00;;;;;;;1.52;1.00;;;12.10;79.90;;;;;;4994864;28;20477;-82
2022/11/24 00:53:26;;;;;;;1.48;1.08;;;12.10;79.90;;;;;;4994874;28;20030;-82
2022/11/24 00:55:52;;;;;;;2.58;1.20;;;12.10;80.00;;;;;;5012975;28;20502;-82
2022/11/24 00:58:18;;;;;;;1.85;1.00;;;12.10;80.00;;;;;;4995193;28;20030;-82
2022/11/24 01:00:43;;;;;;;2.50;1.10;;;12.10;80.00;;;;;;4995312;28;20036;-82
2022/11/24 01:03:09;;;;;;;1.77;1.10;;;12.10;80.10;;;;;;5000041;28;20026;-83
2022/11/24 01:05:37;;;;;;;1.83;1.10;;;12.10;80.00;;;;;;5013381;28;20022;-81
2022/11/24 01:08:02;;;;;;;1.50;1.00;;;12.10;80.10;;;;;;4979577;28;20528;-80
2022/11/24 01:13:53;;;;;;;2.55;1.10;;;12.10;80.10;;;;;;5015149;28;20506;-83
2022/11/24 01:16:28;;;;;;;3.17;1.13;;;12.10;80.10;;;;;;4996676;28;20021;-82
2022/11/24 01:18:54;;;;;;;1.63;1.10;;;12.10;80.10;;;;;;5028702;28;20041;-82
2022/11/24 01:21:21;;;;;;;1.40;0.98;;;12.10;80.10;;;;;;5028074;28;20026;-82
2022/11/24 01:23:47;;;;;;;1.75;1.15;;;12.10;80.10;;;;;;5028479;28;20117;-82
2022/11/24 01:26:15;;;;;;;2.05;1.20;;;12.10;80.10;;;;;;5028164;28;20054;-81
2022/11/24 01:28:41;;;;;;;1.38;1.00;;;12.10;80.10;;;;;;5027737;28;20030;-82
2022/11/24 01:31:07;;;;;;;3.72;1.20;;;12.10;80.10;;;;;;5027802;28;20397;-82
2022/11/24 01:33:34;;;;;;;2.20;1.13;;;12.20;80.20;;;;;;5025092;28;20029;-83
2022/11/24 01:36:00;;;;;;;2.17;1.23;;;12.10;80.10;;;;;;4998906;28;20040;-82
2022/11/24 01:38:26;;;;;;;1.88;1.00;;;12.10;80.20;;;;;;4998552;28;20022;-82
2022/11/24 01:44:59;;;;;;;3.25;1.23;;;12.10;80.10;;;;;;5018388;28;20033;-82
2022/11/24 01:47:34;;;;;;;1.15;0.90;;;12.10;80.10;;;;;;5024071;28;20026;-83
2022/11/24 01:50:02;;;;;;;1.38;0.90;;;12.10;80.10;;;;;;5005727;28;20110;-82
2022/11/24 01:52:57;;;;;;;1.80;1.00;;;12.10;80.10;;;;;;4998301;28;20041;-82
2022/11/24 01:55:35;;;;;;;1.75;1.00;;;12.10;80.20;;;;;;4998752;28;20033;-82
2022/11/24 01:58:17;;;;;;;2.25;1.20;;;12.10;80.20;;;;;;4998423;28;20026;-82
2022/11/24 02:00:50;;;;;;;1.88;1.13;;;12.10;80.20;;;;;;4998466;28;20574;-82
2022/11/24 02:03:22;;;;;;;1.63;1.00;;;12.10;80.20;;;;;;4998114;28;20551;-82
2022/11/24 02:06:01;;;;;;;1.42;0.95;;;12.10;80.10;;;;;;4997972;28;20029;-83
2022/11/24 02:08:32;;;;;;;2.08;1.10;;;12.10;80.00;;;;;;4998172;28;20026;-82
2022/11/24 02:11:02;;;;;;;2.42;1.30;;;12.20;80.00;;;;;;4978805;28;20049;-81
2022/11/24 02:13:28;;;;;;;2.17;0.98;;;12.10;79.90;;;;;;4988449;28;20032;-82
2022/11/24 02:15:54;;;;;;;3.10;1.25;;;12.20;79.80;;;;;;5015127;28;20033;-82
2022/11/24 02:18:28;;;;;;;1.88;1.00;;;12.20;79.80;;;;;;4998397;28;20022;-82
2022/11/24 02:20:54;;;;;;;2.47;1.17;;;12.10;79.60;;;;;;4998647;28;20493;-82
2022/11/24 02:23:36;;;;;;;1.85;1.00;;;12.20;79.60;;;;;;5016950;28;20057;-82
2022/11/24 02:26:01;;;;;;;;;;;12.20;79.60;;;;;;4999670;28;20024;-82
2022/11/24 02:28:29;;;;;;;3.38;1.20;;;12.20;79.30;;;;;;4998677;28;19973;-82
2022/11/24 02:30:56;;;;;;;3.28;1.20;;;12.20;79.60;;;;;;4997469;28;20025;-82
2022/11/24 02:33:21;;;;;;;2.08;1.10;;;12.20;79.80;;;;;;4998402;28;20026;-82
2022/11/24 02:35:47;;;;;;;2.25;1.10;;;12.20;79.90;;;;;;4997685;28;20033;-82
2022/11/24 02:38:13;;;;;;;3.17;1.23;;;12.10;80.00;;;;;;4982255;28;20034;-82
2022/11/24 02:40:42;;;;;;;2.90;1.10;;;12.10;80.10;;;;;;4997535;28;20113;-82
2022/11/24 02:43:12;;;;;;;3.40;1.42;;;12.20;80.20;;;;;;4997422;28;20022;-82
2022/11/24 02:45:38;;;;;;;3.28;1.15;;;12.00;80.10;;;;;;4997587;28;20037;-82
2022/11/24 02:48:04;;;;;;;2.35;1.13;;;12.00;80.20;;;;;;4997949;28;20026;-83
2022/11/24 02:50:29;;;;;;;2.55;1.40;;;12.10;80.20;;;;;;4997189;28;20076;-82
2022/11/24 02:52:55;;;;;;;3.75;1.33;;;12.10;80.30;;;;;;4997510;28;20026;-82
2022/11/24 02:55:22;;;;;;;2.90;1.25;;;12.10;80.40;;;;;;4997470;28;20026;-82
2022/11/24 02:57:47;;;;;;;1.88;1.10;;;12.10;80.30;;;;;;4997077;28;20037;-82
2022/11/24 03:00:22;;;;;;;2.00;1.20;;;12.10;80.40;;;;;;4997275;28;20429;-82
2022/11/24 03:02:48;;;;;;;1.52;1.10;;;12.00;80.30;;;;;;5014824;28;20038;-82
2022/11/24 03:05:14;;;;;;;3.90;1.30;;;12.00;80.40;;;;;;4997552;28;20026;-82
2022/11/24 03:07:39;;;;;;;2.63;1.10;;;12.00;81.00;;;;;;4997667;28;20120;-82
2022/11/24 03:10:06;;;;;;;2.75;1.27;;;12.00;80.40;;;;;;4997483;28;20025;-83
2022/11/24 03:12:32;;;;;;;1.88;1.10;;;12.00;80.50;;;;;;4999127;28;20049;-82
2022/11/24 03:14:57;;;;;;;1.60;1.17;;;12.00;80.40;;;;;;4998016;28;20034;-82
2022/11/24 03:17:23;;;;;;;1.98;1.00;;;12.20;80.60;;;;;;4997667;28;20505;-82
2022/11/24 03:19:49;;;;;;;3.05;1.38;;;12.00;80.50;;;;;;5029735;28;20029;-82
2022/11/24 03:22:42;;;;;;;2.17;1.13;;;12.10;80.60;;;;;;5030488;28;20026;-82
2022/11/24 03:25:08;;;;;;;2.80;1.20;;;12.00;80.50;;;;;;5028270;28;20076;-82
2022/11/24 03:27:33;;;;;;;3.97;1.20;;;12.00;80.50;;;;;;4997784;28;20057;-82
2022/11/24 03:29:59;;;;;;;2.72;1.08;;;12.00;80.50;;;;;;5029704;28;20018;-82
2022/11/24 03:32:24;;;;;;;2.20;1.20;;;12.00;80.50;;;;;;5030136;28;20037;-82
2022/11/24 03:34:51;;;;;;;2.67;1.10;;;12.00;80.50;;;;;;5030260;28;20033;-82
2022/11/24 03:37:16;;;;;;;2.38;1.10;;;12.10;80.50;;;;;;5015099;28;20025;-82
2022/11/24 03:39:42;;;;;;;2.83;1.20;;;12.00;80.60;;;;;;5030417;28;20509;-82
2022/11/24 03:42:07;;;;;;;2.20;1.10;;;12.00;80.60;;;;;;5011366;28;20030;-81
2022/11/24 03:44:33;;;;;;;2.88;1.33;;;12.00;81.10;;;;;;4997099;28;20120;-82
2022/11/24 03:46:59;;;;;;;4.32;1.10;;;12.10;80.60;;;;;;5014568;28;20026;-82
2022/11/24 03:49:24;;;;;;;4.50;1.50;;;12.00;80.60;;;;;;4996215;28;20120;-83
2022/11/24 03:51:50;;;;;;;1.73;0.90;;;12.00;80.50;;;;;;5013911;28;20058;-82
2022/11/24 03:54:16;;;;;;;2.25;1.10;;;12.00;80.50;;;;;;4996649;28;20068;-82
2022/11/24 03:56:42;;;;;;;2.78;1.20;;;12.00;80.60;;;;;;5013039;28;20048;-83
2022/11/24 03:59:07;;;;;;;2.72;1.25;;;12.00;80.60;;;;;;4996823;28;20478;-82
2022/11/24 04:01:33;;;;;;;2.55;1.10;;;12.00;80.60;;;;;;5013612;28;20096;-81
2022/11/24 04:03:59;;;;;;;2.70;1.20;;;12.00;80.40;;;;;;4996952;28;20454;-82
2022/11/24 04:06:24;;;;;;;2.63;1.00;;;12.10;80.40;;;;;;5013740;28;20076;-82
2022/11/24 04:08:50;;;;;;;1.77;1.00;;;12.10;80.30;;;;;;4996291;28;20024;-81
2022/11/24 04:14:00;;;;;;;3.80;1.23;;;12.10;80.20;;;;;;5014724;28;20045;-82
2022/11/24 04:16:30;;;;;;;1.90;1.08;;;12.10;80.10;;;;;;4996345;28;20026;-82
2022/11/24 04:18:59;;;;;;;2.67;1.30;;;12.10;80.00;;;;;;4997429;28;20042;-82
2022/11/24 04:21:29;;;;;;;2.60;1.10;;;12.10;79.90;;;;;;5014460;28;20022;-82
2022/11/24 04:24:04;;;;;;;3.60;1.17;;;12.20;80.00;;;;;;5014536;28;20113;-82
2022/11/24 04:26:29;;;;;;;;;;;12.10;80.00;;;;;;4981722;28;20094;-83
2022/11/24 04:28:54;;;;;;;2.90;1.00;;;12.10;80.10;;;;;;4986021;28;20406;-83
2022/11/24 04:31:26;;;;;;;2.13;1.13;;;12.10;80.30;;;;;;4999165;28;20033;-82
2022/11/24 04:33:52;;;;;;;2.63;1.13;;;12.10;80.30;;;;;;4995970;28;20046;-81
2022/11/24 04:36:17;;;;;;;1.95;1.05;;;12.10;80.40;;;;;;4996129;28;20468;-81
2022/11/24 04:38:43;;;;;;;3.08;1.33;;;12.10;80.50;;;;;;4996749;28;20065;-81
2022/11/24 04:41:09;;;;;;;2.33;1.10;;;12.10;80.50;;;;;;4995544;28;20489;-80
2022/11/24 04:43:34;;;;;;;2.60;1.15;;;12.10;80.60;;;;;;4995590;28;20034;-82
2022/11/24 04:46:00;;;;;;;2.75;1.30;;;12.00;80.60;;;;;;4995544;28;20026;-82
2022/11/24 04:48:26;;;;;;;3.17;1.40;;;12.00;80.60;;;;;;4996157;28;20026;-82
2022/11/24 04:50:52;;;;;;;3.25;1.10;;;12.00;80.60;;;;;;4995652;28;20402;-82
2022/11/24 04:53:18;;;;;;;3.42;1.17;;;12.10;80.70;;;;;;4995848;28;20025;-81
2022/11/24 04:55:44;;;;;;;3.08;1.30;;;12.00;80.70;;;;;;5013220;28;20026;-81
2022/11/24 04:58:12;;;;;;;2.95;1.20;;;12.00;80.70;;;;;;4995378;28;20510;-82
2022/11/24 05:00:39;;;;;;;2.42;1.13;;;12.00;80.70;;;;;;4993401;28;20030;-80
2022/11/24 05:03:05;;;;;;;2.67;1.20;;;12.00;80.70;;;;;;5015007;28;20116;-82
2022/11/24 05:05:31;;;;;;;2.97;1.10;;;12.00;80.70;;;;;;4995728;28;20034;-82
2022/11/24 05:08:02;;;;;;;2.13;1.10;;;12.00;80.70;;;;;;5015645;28;20024;-82
2022/11/24 05:10:36;;;;;;;2.65;1.30;;;12.00;80.80;;;;;;5000384;28;20029;-80
2022/11/24 05:13:05;;;;;;;2.58;1.40;;;12.00;80.70;;;;;;5020452;28;20029;-84
2022/11/24 05:15:31;;;;;;;3.13;1.10;;;12.40;81.00;;;;;;5001383;28;20029;-82
2022/11/24 05:17:56;;;;;;;2.15;1.02;;;12.00;81.30;;;;;;4993236;28;20037;-80
2022/11/24 05:20:22;;;;;;;3.40;1.55;;;12.00;80.80;;;;;;4978626;28;20076;-81
2022/11/24 05:22:48;;;;;;;3.78;1.30;;;12.00;80.80;;;;;;5009935;28;20037;-81
2022/11/24 05:25:14;;;;;;;3.35;1.23;;;12.00;80.80;;;;;;4998749;28;20399;-81
2022/11/24 05:27:40;;;;;;;2.50;1.20;;;12.00;80.70;;;;;;4998781;28;20493;-82
2022/11/24 05:30:08;;;;;;;3.38;1.25;;;12.00;80.80;;;;;;5017714;28;20478;-90
2022/11/24 05:32:33;;;;;;;3.40;1.17;;;12.00;80.80;;;;;;4997721;28;20746;-82
2022/11/24 05:35:01;;;;;;;4.25;1.52;;;12.00;80.80;;;;;;4994678;28;20116;-82
2022/11/24 05:37:27;;;;;;;3.75;1.30;;;12.00;80.80;;;;;;5031286;28;20026;-81
2022/11/24 05:39:53;;;;;;;3.60;1.20;;;12.00;80.80;;;;;;4999100;28;20189;-81
2022/11/24 05:45:04;;;;;;;3.45;1.20;;;12.00;80.80;;;;;;5016698;28;20036;-79
2022/11/24 05:47:30;;;;;;;2.15;1.10;;;12.00;80.90;;;;;;5001308;28;20026;-83
2022/11/24 05:49:55;;;;;;;3.03;1.00;;;12.00;80.80;;;;;;5013916;28;20026;-82
2022/11/24 05:52:21;;;;;;;3.15;1.10;;;12.00;80.80;;;;;;4998664;28;20553;-82
2022/11/24 05:54:46;;;;;;;2.30;1.17;;;12.00;80.80;;;;;;4997980;28;20434;-82
2022/11/24 05:57:16;;;;;;;2.78;1.40;;;12.00;80.80;;;;;;4997984;28;20026;-83
2022/11/24 05:59:41;;;;;;;3.10;1.33;;;12.00;80.80;;;;;;5032423;28;20061;-83
2022/11/24 06:02:08;;;;;;;3.78;1.20;;;12.00;80.70;;;;;;5034043;28;20033;-82
2022/11/24 06:04:34;;;;;;;3.13;1.15;;;12.10;80.60;;;;;;5000482;28;20057;-83
2022/11/24 06:07:01;;;;;;;2.50;1.10;;;12.10;80.60;;;;;;5002083;28;20029;-83
2022/11/24 06:09:30;;;;;;;2.22;1.10;;;12.10;80.50;;;;;;5002347;28;20068;-81
2022/11/24 06:11:55;;;;;;;2.95;1.20;;;12.10;80.40;;;;;;4999475;28;20085;-82
2022/11/24 06:14:21;;;;;;;2.97;1.20;;;12.10;80.30;;;;;;5003542;28;20383;-84
2022/11/24 06:26:34;;;;;;;2.75;1.20;;;12.10;80.40;;;;;;5038366;28;20064;-88
2022/11/24 06:29:00;;;;;;;2.80;1.10;;;12.20;80.60;;;;;;5000704;28;20494;-81
2022/11/24 06:31:25;;;;;;;2.75;1.10;;;12.10;80.60;;;;;;4996210;28;20026;-82
2022/11/24 06:33:51;;;;;;;2.70;1.13;;;12.80;81.10;;;;;;4997281;28;20030;-81
2022/11/24 06:36:16;;;;;;;3.80;1.35;;;12.10;80.80;;;;;;4995800;28;20021;-81
2022/11/24 06:38:42;;;;;;;2.63;1.20;;;12.00;80.70;;;;;;4995367;28;20022;-81
2022/11/24 06:41:12;;;;;;;3.03;1.00;;;12.00;80.70;;;;;;4995738;28;20030;-81
2022/11/24 06:43:37;;;;;;;3.03;1.10;;;12.00;80.80;;;;;;4995150;28;20030;-81
2022/11/24 06:46:03;;;;;;;3.47;1.40;;;12.00;80.90;;;;;;4998528;28;20023;-81
2022/11/24 06:48:29;;;;;;;2.55;1.08;;;12.00;80.80;;;;;;4976835;28;20023;-82
2022/11/24 06:50:59;;;;;;;2.80;1.20;;;12.00;80.80;;;;;;4976467;28;20411;-82
2022/11/24 06:53:25;;;;;;;3.28;1.30;;;12.00;80.90;;;;;;4976396;28;20129;-83
2022/11/24 06:55:51;;;;;;;4.53;1.27;;;12.00;80.90;;;;;;4995071;28;20569;-80
2022/11/24 06:58:17;;;;;;;5.18;1.38;;;12.00;80.90;;;;;;4987532;28;20494;-82
2022/11/24 07:00:42;;;;;;;3.35;1.48;;;12.00;80.90;;;;;;4976568;28;20026;-81
2022/11/24 07:03:14;;;;;;;3.72;1.27;;;12.00;80.90;;;;;;4977821;28;20030;-81
2022/11/24 07:05:40;;;;;;;3.45;1.38;;;12.00;80.90;;;;;;5004791;28;20433;-84
2022/11/24 07:21:41;;;;;;;2.78;1.30;;;12.10;81.00;;;;;;5015553;28;20047;-80
2022/11/24 07:24:19;;;;;;;4.82;1.20;;;12.00;81.00;;;;;;4995714;28;20425;-84
2022/11/24 07:34:04;;;;;;;3.50;1.27;;;12.00;80.90;;;;;;4973573;28;20056;-82
2022/11/24 07:36:30;;;;;;;4.60;1.45;;;12.10;81.00;;;;;;4995665;28;20030;-84
2022/11/24 07:38:56;;;;;;;4.32;1.35;;;12.00;80.90;;;;;;4995352;28;20453;-82
2022/11/24 07:41:22;;;;;;;4.05;1.20;;;12.00;80.90;;;;;;5012717;28;20026;-81
2022/11/24 07:43:48;;;;;;;4.57;1.45;;;12.00;80.90;;;;;;4995851;28;20101;-80
2022/11/24 07:46:15;;;;;;;6.32;1.60;;;12.00;80.90;;;;;;4993042;28;20033;-81
2022/11/24 07:48:41;;;;;;;3.38;1.30;;;12.00;80.90;;;;;;5001980;28;20040;-81
2022/11/24 07:51:06;;;;;;;2.25;1.13;;;12.00;80.90;;;;;;4994397;28;20026;-82
2022/11/24 07:53:35;;;;;;;3.70;1.20;;;12.00;80.90;;;;;;4997661;28;20030;-82
2022/11/24 07:56:02;;;;;;;4.68;1.55;;;12.00;80.80;;;;;;4989178;28;20288;-82
2022/11/24 07:58:30;;;;;;;3.72;1.30;;;12.00;80.80;;;;;;5019635;28;20049;-81
2022/11/24 08:00:55;;;;;;;3.67;1.25;;;12.10;80.70;;;;;;5016133;28;20037;-82
2022/11/24 08:03:21;;;;;;;3.97;1.40;;;12.10;80.70;;;;;;5004555;28;20034;-83
2022/11/24 08:05:58;;;;;;;3.35;1.33;;;12.20;80.60;;;;;;5002228;28;20076;-81
2022/11/24 08:08:24;;;;;;;4.32;1.50;;;12.20;80.30;;;;;;5011163;28;20543;-82
2022/11/24 08:10:50;;;;;;;4.80;1.50;;;12.30;80.10;;;;;;5002287;28;20061;-82
2022/11/24 08:13:16;;;;;;;3.78;1.20;;;12.40;79.90;;;;;;4992225;28;20034;-81
2022/11/24 08:15:42;;;;;;;4.32;1.55;;;12.40;79.70;;;;;;5002946;28;20033;-81
2022/11/24 08:18:07;;;;;;;3.72;1.30;;;12.50;79.50;;;;;;5028895;28;20036;-82
2022/11/24 08:20:33;;;;;;;5.97;1.70;;;12.50;79.50;;;;;;4993814;28;20022;-82
2022/11/24 08:22:58;;;;;;;5.55;1.80;;;12.40;79.40;;;;;;4992939;28;20421;-82
2022/11/24 08:25:30;;;;;;;5.35;1.77;;;12.40;79.50;;;;;;5002484;28;20021;-82
2022/11/24 08:28:08;;;;;;;3.90;1.35;;;12.40;79.70;;;;;;4990152;28;20045;-82
2022/11/24 08:30:34;;;;;;;5.50;1.38;;;12.40;79.80;;;;;;4997004;28;20029;-82
2022/11/24 08:32:59;;;;;;;3.95;1.73;;;12.30;79.90;;;;;;4991800;28;20482;-83
2022/11/24 08:35:26;;;;;;;3.63;1.38;;;12.30;80.10;;;;;;5000841;28;20033;-84
2022/11/24 08:37:51;;;;;;;3.55;1.30;;;12.30;80.10;;;;;;4992785;28;20037;-83
2022/11/24 08:40:17;;;;;;;4.53;1.50;;;12.20;80.20;;;;;;5003128;28;20029;-82
2022/11/24 08:42:42;;;;;;;3.80;1.40;;;12.20;80.30;;;;;;5016698;28;20038;-82
2022/11/24 08:45:09;;;;;;;5.80;1.60;;;12.20;80.30;;;;;;5018363;28;20490;-82
2022/11/24 08:47:41;;;;;;;5.60;1.50;;;12.20;80.40;;;;;;5018281;28;20460;-82
2022/11/24 08:50:10;;;;;;;12.98;2.25;;;12.20;80.60;;;;;;5035953;28;20088;-83
2022/11/24 08:52:37;;;;;;;7.45;2.28;;;12.10;80.60;;;;;;5019771;28;20033;-84
2022/11/24 08:55:04;;;;;;;7.00;1.67;;;12.20;80.80;;;;;;5002558;28;20080;-82
2022/11/24 08:57:29;;;;;;;6.75;1.70;;;12.10;80.70;;;;;;5018255;28;20079;-80
2022/11/24 08:59:55;;;;;;;5.72;1.52;;;12.20;80.80;;;;;;5018077;28;20029;-81
2022/11/24 09:02:20;;;;;;;6.53;1.92;;;12.20;80.80;;;;;;5018320;28;20025;-81
2022/11/24 09:04:46;;;;;;;5.88;1.60;;;12.10;80.80;;;;;;5018360;28;20323;-81
2022/11/24 09:07:12;;;;;;;6.35;1.50;;;12.20;80.80;;;;;;5035075;28;20022;-82
2022/11/24 09:09:38;;;;;;;6.88;1.80;;;12.10;80.80;;;;;;5000984;28;20022;-82
2022/11/24 09:14:47;;;;;;;6.10;1.80;;;12.20;80.90;;;;;;5035757;28;20045;-80
2022/11/24 09:17:13;;;;;;;7.07;1.88;;;12.10;80.80;;;;;;5017436;28;20470;-81
2022/11/24 09:19:39;;;;;;;8.55;1.40;;;12.10;80.90;;;;;;5016996;28;20022;-81
2022/11/24 09:22:04;;;;;;;6.72;1.70;;;12.10;80.90;;;;;;5010454;28;20034;-81
2022/11/24 09:24:30;;;;;;;5.05;1.50;;;12.10;80.80;;;;;;5013536;28;20036;-82
2022/11/24 09:26:55;;;;;;;4.45;1.40;;;12.10;80.90;;;;;;4996963;28;20018;-81
2022/11/24 09:29:21;;;;;;;6.65;1.55;;;12.10;80.90;;;;;;4996540;28;20022;-81
2022/11/24 09:31:47;;;;;;;7.45;1.58;;;12.10;80.90;;;;;;4997059;28;20022;-81
2022/11/24 09:34:14;;;;;;;4.97;1.35;;;12.10;80.90;;;;;;4995996;28;20017;-81
2022/11/24 09:36:40;;;;;;;5.38;1.58;;;12.10;80.90;;;;;;4995500;28;20026;-81
2022/11/24 09:39:06;;;;;;;3.72;1.58;;;12.10;80.90;;;;;;5014907;28;20033;-81
2022/11/24 09:41:36;;;;;;;5.38;1.90;;;12.10;80.90;;;;;;4997308;28;20026;-82
2022/11/24 09:44:34;;;;;;;4.78;1.50;;;12.10;80.90;;;;;;4997953;28;20104;-83
2022/11/24 09:47:06;;;;;;;4.35;1.65;;;12.10;80.90;;;;;;5000084;28;20084;-82
2022/11/24 09:49:42;;;;;;;6.70;1.80;;;12.10;80.90;;;;;;4999018;28;20113;-80
2022/11/24 09:52:13;;;;;;;5.50;1.50;;;12.10;80.90;;;;;;4997263;28;20022;-81
2022/11/24 09:54:47;;;;;;;5.93;1.70;;;12.10;80.90;;;;;;4997232;28;20022;-81
2022/11/24 09:57:14;;;;;;;5.90;1.98;;;12.10;80.80;;;;;;4996906;28;20524;-81
2022/11/24 09:59:41;;;;;;;4.05;1.50;;;12.20;80.90;;;;;;4996848;28;20083;-81
2022/11/24 10:02:11;;;;;;;7.10;1.70;;;12.20;80.80;;;;;;4997002;28;20026;-83
2022/11/24 10:04:45;;;;;;;4.95;1.30;;;12.10;80.70;;;;;;4997124;28;20045;-83
2022/11/24 10:07:10;;;;;;;4.32;1.45;;;12.20;80.70;;;;;;4996655;28;20018;-81
2022/11/24 10:09:54;;;;;;;3.92;1.40;;;12.20;80.60;;;;;;4996778;28;20022;-81
2022/11/24 10:12:44;;;;;;;4.70;1.40;;;12.30;80.60;;;;;;4996843;28;20022;-81
2022/11/24 10:15:24;;;;;;;2.88;1.13;;;12.20;80.50;;;;;;4997034;28;20022;-81
2022/11/24 10:18:11;;;;;;;4.53;1.50;;;12.20;80.50;;;;;;4996920;28;20029;-81
2022/11/24 10:21:13;;;;;;;3.72;1.42;;;12.20;80.50;;;;;;5014349;28;20029;-80
2022/11/24 10:23:59;;;;;;;5.88;1.70;;;12.20;80.60;;;;;;4996932;28;20029;-81
2022/11/24 10:26:35;;;;;;;3.35;1.30;;;12.20;80.60;;;;;;4996844;28;20482;-81
2022/11/24 10:29:25;;;;;;;3.67;1.40;;;12.20;80.70;;;;;;4996428;28;20042;-82
2022/11/24 10:31:54;;;;;;;5.13;1.58;;;12.20;80.80;;;;;;4996594;28;20030;-82
2022/11/24 10:34:37;;;;;;;3.70;1.50;;;12.20;80.90;;;;;;4996575;28;20028;-81
2022/11/24 10:37:24;;;;;;;7.03;1.75;;;12.10;80.80;;;;;;4996558;28;20081;-81
2022/11/24 10:39:59;;;;;;;3.67;1.63;;;12.20;81.00;;;;;;4996470;28;20092;-81
2022/11/24 10:42:30;;;;;;;3.47;1.40;;;12.10;81.00;;;;;;4996294;28;20037;-81
2022/11/24 10:45:01;;;;;;;3.75;1.27;;;12.10;81.00;;;;;;4996179;28;20030;-83
2022/11/24 10:47:27;;;;;;;2.90;1.20;;;12.10;81.00;;;;;;4996089;28;20034;-82
2022/11/24 10:50:18;;;;;;;4.78;1.35;;;12.10;81.00;;;;;;5013523;28;20375;-81
2022/11/24 10:53:13;;;;;;;4.63;1.45;;;12.10;81.10;;;;;;4996418;28;20022;-81
2022/11/24 10:55:54;;;;;;;3.53;1.25;;;12.10;81.10;;;;;;4985766;28;20034;-81
2022/11/24 10:58:31;;;;;;;3.03;1.40;;;12.10;81.10;;;;;;4995939;28;20037;-82
2022/11/24 11:01:17;;;;;;;4.40;1.60;;;12.10;81.10;;;;;;4995862;28;20041;-81
2022/11/24 11:03:56;;;;;;;4.05;1.48;;;12.10;81.10;;;;;;4996011;28;20025;-81
2022/11/24 11:06:27;;;;;;;4.13;1.40;;;12.10;81.10;;;;;;5013208;28;20025;-81
2022/11/24 11:09:05;;;;;;;4.55;1.45;;;12.10;81.10;;;;;;4996005;28;20029;-81
2022/11/24 11:11:31;;;;;;;3.08;1.30;;;12.10;81.10;;;;;;4995467;28;20116;-81
2022/11/24 11:14:00;;;;;;;4.03;1.50;;;12.10;81.10;;;;;;4995609;28;20026;-83
2022/11/24 11:16:37;;;;;;;4.25;1.50;;;12.10;81.10;;;;;;4995554;28;20385;-82
2022/11/24 11:19:05;;;;;;;3.97;1.58;;;12.10;81.10;;;;;;4995570;28;20168;-81
2022/11/24 11:21:36;;;;;;;4.47;1.50;;;12.10;81.20;;;;;;5013041;28;20037;-81
2022/11/24 11:24:11;;;;;;;5.53;1.52;;;12.10;81.10;;;;;;4995525;28;20029;-82
2022/11/24 11:26:38;;;;;;;4.70;1.55;;;12.10;81.20;;;;;;4995579;28;20041;-81
2022/11/24 11:29:06;;;;;;;3.85;1.30;;;12.10;81.10;;;;;;4995114;28;20401;-81
2022/11/24 11:31:35;;;;;;;4.63;1.40;;;12.10;81.10;;;;;;4995521;28;20058;-82
2022/11/24 11:34:12;;;;;;;2.67;1.20;;;12.10;81.10;;;;;;4995388;28;20028;-81
2022/11/24 11:36:41;;;;;;;3.15;1.40;;;12.10;81.20;;;;;;5012890;28;20033;-81
2022/11/24 11:39:22;;;;;;;2.85;1.17;;;12.10;81.20;;;;;;5012611;28;20026;-81
2022/11/24 11:41:52;;;;;;;2.75;1.30;;;12.10;81.10;;;;;;4994984;28;20136;-81
2022/11/24 11:44:40;;;;;;;2.72;1.15;;;12.10;81.10;;;;;;4995078;28;20033;-81
2022/11/24 11:47:18;;;;;;;3.28;1.30;;;12.10;81.10;;;;;;4994910;28;20084;-81
2022/11/24 11:49:46;;;;;;;3.35;1.38;;;12.10;81.10;;;;;;4994944;28;20485;-81
2022/11/24 11:52:54;;;;;;;2.83;1.30;;;12.10;81.00;;;;;;4994944;28;20469;-83
2022/11/24 11:55:51;;;;;;;3.22;1.30;;;12.20;81.00;;;;;;4995076;28;20026;-81
2022/11/24 11:58:34;;;;;;;4.40;1.30;;;12.20;81.00;;;;;;5011343;28;20090;-81
2022/11/24 12:01:16;;;;;;;3.22;1.60;;;12.20;80.90;;;;;;4994670;28;20026;-81
2022/11/24 12:04:20;;;;;;;3.35;1.30;;;12.20;80.80;;;;;;5012517;28;20025;-81
2022/11/24 12:07:14;;;;;;;3.60;1.60;;;12.20;80.70;;;;;;4994807;28;20076;-81
2022/11/24 12:10:01;;;;;;;3.40;1.38;;;12.20;80.70;;;;;;5012322;28;20026;-81
2022/11/24 12:13:02;;;;;;;1.92;1.20;;;12.20;80.60;;;;;;4994710;28;20022;-81
2022/11/24 12:15:38;;;;;;;3.83;1.50;;;12.20;80.60;;;;;;4994748;28;20112;-82
2022/11/24 12:18:37;;;;;;;4.13;1.52;;;12.20;80.60;;;;;;5011555;28;20022;-81
2022/11/24 12:21:26;;;;;;;3.75;1.40;;;12.20;80.60;;;;;;4994607;28;20052;-81
2022/11/24 12:24:33;;;;;;;2.50;1.20;;;12.20;80.70;;;;;;4994730;28;20033;-81
2022/11/24 12:27:08;;;;;;;3.78;1.35;;;12.20;80.80;;;;;;4973043;28;20125;-83
2022/11/24 12:29:57;;;;;;;2.60;1.33;;;12.10;80.90;;;;;;4997365;28;20040;-80
2022/11/24 12:32:29;;;;;;;2.35;1.20;;;12.20;81.50;;;;;;4996172;28;20127;-81
2022/11/24 12:35:43;;;;;;;3.38;1.35;;;12.10;81.00;;;;;;4994726;28;20038;-81
2022/11/24 12:38:30;;;;;;;3.22;1.30;;;12.20;81.10;;;;;;4972531;28;20057;-81
2022/11/24 12:41:20;;;;;;;2.90;1.35;;;12.10;81.10;;;;;;4994326;28;20029;-81
2022/11/24 12:43:51;;;;;;;3.57;1.47;;;12.10;81.10;;;;;;4994610;28;20079;-81
2022/11/24 12:46:27;;;;;;;3.15;1.45;;;12.10;81.20;;;;;;4994507;28;20482;-82
2022/11/24 12:49:07;;;;;;;3.05;1.25;;;12.10;81.20;;;;;;4994364;28;20053;-82
2022/11/24 12:51:40;;;;;;;2.70;1.25;;;12.10;81.40;;;;;;4993951;28;20022;-81
2022/11/24 12:54:13;;;;;;;2.33;1.20;;;12.10;81.20;;;;;;4993248;28;20034;-81
2022/11/24 12:57:06;;;;;;;3.30;1.20;;;12.10;81.20;;;;;;4994189;28;20144;-81
2022/11/24 12:59:44;;;;;;;3.42;1.20;;;12.10;81.20;;;;;;4994110;28;20030;-81
2022/11/24 13:02:18;;;;;;;3.45;1.40;;;12.10;81.20;;;;;;4994201;28;20026;-80
2022/11/24 13:05:35;;;;;;;3.35;1.20;;;12.10;81.20;;;;;;4994197;28;20084;-82
2022/11/24 13:08:03;;;;;;;3.42;1.40;;;12.10;81.20;;;;;;4947685;28;20030;-82
2022/11/24 13:10:50;;;;;;;3.03;1.45;;;12.10;81.20;;;;;;4993958;28;20049;-81
2022/11/24 13:13:16;;;;;;;3.13;1.50;;;12.10;81.20;;;;;;4994223;28;20030;-81
2022/11/24 13:15:51;;;;;;;4.40;1.60;;;12.10;81.20;;;;;;4993906;28;20140;-81
2022/11/24 13:18:54;;;;;;;4.35;1.35;;;12.10;81.30;;;;;;4994040;28;20025;-81
2022/11/24 13:21:40;;;;;;;5.03;1.35;;;12.10;81.30;;;;;;4994082;28;20033;-81
2022/11/24 13:24:20;;;;;;;2.75;1.40;;;12.10;81.30;;;;;;4945097;28;20038;-81
2022/11/24 13:27:13;;;;;;;5.83;1.40;;;12.10;81.30;;;;;;5011461;28;20113;-81
2022/11/24 13:29:44;;;;;;;3.42;1.35;;;12.10;81.30;;;;;;4996863;28;20284;-82
2022/11/24 13:32:13;;;;;;;3.03;1.35;;;12.10;81.20;;;;;;4997794;28;20029;-81
2022/11/24 13:34:39;;;;;;;7.20;1.70;;;12.20;81.20;;;;;;4997643;28;20555;-81
2022/11/24 13:37:22;;;;;;;5.95;1.70;;;12.20;81.00;;;;;;4997505;28;20116;-83
2022/11/24 13:39:49;;;;;;;2.85;1.40;;;12.20;80.90;;;;;;5014742;28;20018;-80
2022/11/24 13:42:16;;;;;;;5.70;1.63;;;12.10;80.90;;;;;;4997246;28;20527;-80
2022/11/24 13:44:47;;;;;;;4.13;1.50;;;12.20;81.00;;;;;;4997046;28;20028;-81
2022/11/24 13:47:33;;;;;;;3.67;1.53;;;12.20;80.80;;;;;;4997322;28;20072;-81
2022/11/24 13:50:00;;;;;;;3.28;1.33;;;12.20;80.80;;;;;;4996959;28;20363;-81
2022/11/24 13:52:36;;;;;;;4.30;1.73;;;12.20;80.80;;;;;;4997193;28;20473;-81
2022/11/24 13:55:13;;;;;;;4.43;1.45;;;12.30;80.80;;;;;;4997330;28;20030;-81
2022/11/24 13:57:48;;;;;;;4.32;1.50;;;12.30;80.70;;;;;;4997121;28;20032;-81
2022/11/24 14:00:33;;;;;;;3.78;1.50;;;12.30;80.60;;;;;;4996749;28;20482;-79
2022/11/24 14:03:17;;;;;;;4.22;1.40;;;12.30;80.50;;;;;;4997083;28;20026;-81